Time;durP1;ratioP1;P1;durP2;ratioP2;P2;SDS_P1;SDS_P2;PMS_P1;PMS_P2;Temp;Humidity;BMP_temperature;BMP_pressure;BME280_temperature;BME280_humidity;BME280_pressure;Samples;Min_cycle;Max_cycle;Signal;HPM_P1;HPM_P2
2022/04/14 00:21:32;;;;;;;;;;;;;;;;;;4578304;28;20497;-59
2022/04/14 00:23:58;;;;;;;5.07;3.35;;;;;;;;;;4196664;34;19970;-59
2022/04/14 00:26:24;;;;;;;5.12;2.87;;;;;;;;;;4202853;34;20106;-60
2022/04/14 00:28:50;;;;;;;5.00;3.08;;;;;;;;;;4191038;34;20220;-61
2022/04/14 00:31:16;;;;;;;5.10;3.55;;;;;;;;;;4190627;34;20193;-61
2022/04/14 00:33:42;;;;;;;4.12;3.53;;;;;;;;;;4190980;34;20122;-61
2022/04/14 00:36:08;;;;;;;4.75;3.35;;;;;;;;;;4191061;34;20155;-61
2022/04/14 00:38:34;;;;;;;3.97;2.85;;;;;;;;;;4190685;34;20206;-61
2022/04/14 00:41:00;;;;;;;3.80;3.40;;;;;;;;;;4200825;34;20172;-61
2022/04/14 00:43:33;;;;;;;4.95;3.42;;;;;;;;;;4191517;34;20109;-60
2022/04/14 00:46:00;;;;;;;5.50;3.20;;;;;;;;;;4204399;34;20209;-61
2022/04/14 00:48:27;;;;;;;4.30;3.03;;;;;;;;;;4204394;34;20520;-61
2022/04/14 00:50:53;;;;;;;3.60;2.78;;;;;;;;;;4191810;34;20136;-61
2022/04/14 00:53:20;;;;;;;6.50;3.03;;;;;;;;;;4204290;34;20121;-61
2022/04/14 00:55:46;;;;;;;5.70;3.40;;;;;;;;;;4204279;34;20462;-61
2022/04/14 00:58:12;;;;;;;4.32;3.28;;;;;;;;;;4193472;34;20094;-61
2022/04/14 01:00:38;;;;;;;4.47;3.90;;;;;;;;;;4190459;34;20140;-61
2022/04/14 01:03:05;;;;;;;7.20;3.65;;;;;;;;;;4189108;34;20094;-61
2022/04/14 01:05:31;;;;;;;5.35;3.50;;;;;;;;;;4190433;34;20105;-61
2022/04/14 01:07:58;;;;;;;5.30;3.40;;;;;;;;;;4190354;34;20198;-60
2022/04/14 01:10:25;;;;;;;5.65;3.42;;;;;;;;;;4190573;34;20098;-61
2022/04/14 01:12:53;;;;;;;4.80;3.78;;;;;;;;;;4190362;34;20105;-60
2022/04/14 01:15:19;;;;;;;7.68;4.30;;;;;;;;;;4190570;34;20130;-61
2022/04/14 01:17:45;;;;;;;10.90;4.12;;;;;;;;;;4190263;34;20462;-61
2022/04/14 01:20:13;;;;;;;6.93;5.00;;;;;;;;;;4190315;34;20498;-61
2022/04/14 01:22:59;;;;;;;4.43;4.03;;;;;;;;;;4177232;34;20133;-61
2022/04/14 01:25:26;;;;;;;6.47;4.62;;;;;;;;;;4203734;34;20322;-61
2022/04/14 01:27:52;;;;;;;5.55;3.90;;;;;;;;;;4214204;34;20121;-61
2022/04/14 01:30:19;;;;;;;6.00;3.90;;;;;;;;;;4203984;34;20110;-61
2022/04/14 01:32:45;;;;;;;4.82;3.58;;;;;;;;;;4203984;34;20121;-61
2022/04/14 01:35:11;;;;;;;3.90;3.50;;;;;;;;;;4204002;34;20222;-61
2022/04/14 01:37:37;;;;;;;5.90;4.05;;;;;;;;;;4203850;34;20535;-61
2022/04/14 01:40:03;;;;;;;4.65;3.62;;;;;;;;;;4204147;34;20125;-60
2022/04/14 01:42:29;;;;;;;7.47;3.60;;;;;;;;;;4203742;34;20519;-61
2022/04/14 01:44:55;;;;;;;5.32;4.03;;;;;;;;;;4203879;34;20121;-61
2022/04/14 01:47:21;;;;;;;4.68;3.90;;;;;;;;;;4203729;34;20470;-61
2022/04/14 01:49:47;;;;;;;6.30;4.00;;;;;;;;;;4203898;34;20239;-60
2022/04/14 01:52:13;;;;;;;7.70;4.22;;;;;;;;;;4203586;34;20637;-61
2022/04/14 01:54:39;;;;;;;6.20;3.78;;;;;;;;;;4203833;34;20110;-61
2022/04/14 01:57:06;;;;;;;6.57;4.82;;;;;;;;;;4203731;34;20122;-61
2022/04/14 01:59:32;;;;;;;5.30;4.37;;;;;;;;;;4190235;34;20129;-61
2022/04/14 02:01:58;;;;;;;8.48;4.45;;;;;;;;;;4189749;34;20201;-61
2022/04/14 02:04:24;;;;;;;9.77;4.40;;;;;;;;;;4189938;34;20555;-61
2022/04/14 02:06:49;;;;;;;5.82;4.35;;;;;;;;;;4189962;34;20217;-61
2022/04/14 02:09:16;;;;;;;8.68;5.20;;;;;;;;;;4189759;34;20102;-61
2022/04/14 02:11:42;;;;;;;5.60;5.00;;;;;;;;;;4189749;34;20098;-60
2022/04/14 02:14:07;;;;;;;6.57;5.00;;;;;;;;;;4189707;34;20137;-61
2022/04/14 02:16:33;;;;;;;13.45;4.78;;;;;;;;;;4189802;34;20134;-61
2022/04/14 02:18:59;;;;;;;5.75;5.00;;;;;;;;;;4191640;34;20181;-60
2022/04/14 02:21:25;;;;;;;8.55;5.12;;;;;;;;;;4191759;34;20208;-60
2022/04/14 02:23:51;;;;;;;5.62;4.62;;;;;;;;;;4191939;34;20785;-60
2022/04/14 02:26:19;;;;;;;8.40;4.75;;;;;;;;;;4200852;34;20544;-60
2022/04/14 02:28:45;;;;;;;6.35;4.22;;;;;;;;;;4205669;34;20130;-60
2022/04/14 02:31:11;;;;;;;5.62;3.90;;;;;;;;;;4205913;34;20125;-60
2022/04/14 02:33:37;;;;;;;5.15;4.40;;;;;;;;;;4215697;34;20102;-60
2022/04/14 02:36:04;;;;;;;6.18;4.07;;;;;;;;;;4205626;34;20105;-59
2022/04/14 02:38:30;;;;;;;8.15;5.65;;;;;;;;;;4215607;34;20097;-60
2022/04/14 02:40:56;;;;;;;9.50;4.37;;;;;;;;;;4205858;34;20150;-63
2022/04/14 02:43:22;;;;;;;9.85;4.50;;;;;;;;;;4205685;34;20246;-62
2022/04/14 02:45:48;;;;;;;12.10;5.03;;;;;;;;;;4205603;34;20101;-60
2022/04/14 02:48:14;;;;;;;6.45;4.93;;;;;;;;;;4205464;34;20516;-61
2022/04/14 02:50:43;;;;;;;7.75;4.90;;;;;;;;;;4205372;34;20181;-62
2022/04/14 02:53:10;;;;;;;7.22;4.62;;;;;;;;;;4205389;34;20220;-60
2022/04/14 02:55:36;;;;;;;7.45;4.55;;;;;;;;;;4205424;34;20509;-64
2022/04/14 02:58:02;;;;;;;6.87;4.57;;;;;;;;;;4205414;34;20168;-60
2022/04/14 03:00:28;;;;;;;9.40;5.07;;;;;;;;;;4205286;34;20118;-59
2022/04/14 03:02:54;;;;;;;7.65;4.93;;;;;;;;;;4205337;34;20625;-59
2022/04/14 03:05:20;;;;;;;6.28;4.57;;;;;;;;;;4205388;34;20139;-60
2022/04/14 03:07:46;;;;;;;9.52;5.00;;;;;;;;;;4205553;34;20109;-60
2022/04/14 03:10:11;;;;;;;7.03;4.78;;;;;;;;;;4205573;34;20129;-61
2022/04/14 03:12:46;;;;;;;7.57;5.40;;;;;;;;;;4205216;34;20230;-61
2022/04/14 03:15:13;;;;;;;7.47;4.90;;;;;;;;;;4205184;34;20138;-61
2022/04/14 03:17:40;;;;;;;5.68;4.53;;;;;;;;;;4205116;34;20229;-61
2022/04/14 03:20:06;;;;;;;8.32;5.45;;;;;;;;;;4204764;34;20102;-61
2022/04/14 03:22:33;;;;;;;8.07;5.20;;;;;;;;;;4204973;34;20102;-60
2022/04/14 03:25:07;;;;;;;8.77;5.60;;;;;;;;;;4205038;34;20521;-62
2022/04/14 03:27:33;;;;;;;9.82;4.90;;;;;;;;;;4205100;34;20108;-60
2022/04/14 03:29:59;;;;;;;8.15;5.22;;;;;;;;;;4204267;34;20181;-61
2022/04/14 03:32:25;;;;;;;8.70;5.22;;;;;;;;;;4205088;34;20502;-61
2022/04/14 03:34:54;;;;;;;10.93;5.47;;;;;;;;;;4205171;34;20109;-61
2022/04/14 03:37:21;;;;;;;8.20;5.37;;;;;;;;;;4205048;34;20122;-59
2022/04/14 03:39:47;;;;;;;5.70;4.78;;;;;;;;;;4205077;34;20457;-59
2022/04/14 03:42:13;;;;;;;10.45;5.45;;;;;;;;;;4204971;34;20113;-65
2022/04/14 03:44:39;;;;;;;8.60;5.75;;;;;;;;;;4205132;34;20114;-62
2022/04/14 03:47:05;;;;;;;9.38;5.65;;;;;;;;;;4205106;34;20149;-62
2022/04/14 03:49:31;;;;;;;8.40;5.03;;;;;;;;;;4204851;34;20112;-62
2022/04/14 03:51:57;;;;;;;7.65;5.32;;;;;;;;;;4204885;34;20226;-61
2022/04/14 03:54:23;;;;;;;9.55;5.97;;;;;;;;;;4204697;34;20209;-61
2022/04/14 03:56:49;;;;;;;6.93;5.47;;;;;;;;;;4214953;33;20144;-61
2022/04/14 03:59:16;;;;;;;8.07;5.18;;;;;;;;;;4204813;34;20197;-61
2022/04/14 04:01:42;;;;;;;7.72;5.50;;;;;;;;;;4192145;34;20217;-64
2022/04/14 04:04:07;;;;;;;11.02;6.07;;;;;;;;;;4214841;34;20101;-61
2022/04/14 04:06:33;;;;;;;7.62;5.53;;;;;;;;;;4204833;34;20213;-61
2022/04/14 04:09:00;;;;;;;10.93;5.82;;;;;;;;;;4204800;34;20200;-61
2022/04/14 04:11:25;;;;;;;8.80;5.65;;;;;;;;;;4204845;34;20121;-59
2022/04/14 04:13:51;;;;;;;7.53;5.15;;;;;;;;;;4204745;34;20109;-58
2022/04/14 04:16:17;;;;;;;10.05;5.53;;;;;;;;;;4204567;34;20585;-58
2022/04/14 04:18:43;;;;;;;8.52;6.68;;;;;;;;;;4191617;34;20117;-60
2022/04/14 04:21:09;;;;;;;9.05;6.30;;;;;;;;;;4191515;34;20106;-57
2022/04/14 04:23:35;;;;;;;17.87;6.12;;;;;;;;;;4204472;34;20109;-58
2022/04/14 04:26:01;;;;;;;10.30;5.65;;;;;;;;;;4203721;34;20233;-58
2022/04/14 04:28:30;;;;;;;10.82;6.20;;;;;;;;;;4203490;34;20214;-59
2022/04/14 04:30:57;;;;;;;12.73;6.20;;;;;;;;;;4204530;34;20198;-57
2022/04/14 04:33:23;;;;;;;9.70;5.57;;;;;;;;;;4204576;34;20102;-58
2022/04/14 04:35:52;;;;;;;8.88;6.55;;;;;;;;;;4204665;34;20137;-57
2022/04/14 04:38:19;;;;;;;11.23;6.20;;;;;;;;;;4204535;34;20131;-57
2022/04/14 04:40:45;;;;;;;10.60;7.57;;;;;;;;;;4204028;34;20109;-54
2022/04/14 04:43:15;;;;;;;11.98;6.35;;;;;;;;;;4204275;34;20193;-57
2022/04/14 04:45:42;;;;;;;13.23;6.78;;;;;;;;;;4204462;34;20104;-57
2022/04/14 04:48:08;;;;;;;11.88;6.62;;;;;;;;;;4203556;34;20121;-58
2022/04/14 04:50:34;;;;;;;11.65;6.50;;;;;;;;;;4204279;34;20132;-56
2022/04/14 04:53:00;;;;;;;10.90;6.53;;;;;;;;;;4204387;34;20110;-58
2022/04/14 04:55:26;;;;;;;11.55;6.30;;;;;;;;;;4204265;34;20112;-55
2022/04/14 04:57:52;;;;;;;15.57;6.65;;;;;;;;;;4203618;34;20120;-57
2022/04/14 05:00:18;;;;;;;10.98;6.12;;;;;;;;;;4204152;34;20106;-57
2022/04/14 05:02:45;;;;;;;14.45;6.85;;;;;;;;;;4204192;34;20108;-57
2022/04/14 05:05:11;;;;;;;13.25;7.40;;;;;;;;;;4204168;34;20505;-57
2022/04/14 05:07:37;;;;;;;9.10;5.97;;;;;;;;;;4204204;34;20181;-57
2022/04/14 05:10:03;;;;;;;7.93;5.40;;;;;;;;;;4204345;34;20221;-57
2022/04/14 05:12:29;;;;;;;8.80;5.47;;;;;;;;;;4191596;34;20097;-58
2022/04/14 05:14:55;;;;;;;9.90;5.57;;;;;;;;;;4204142;34;20109;-58
2022/04/14 05:17:21;;;;;;;11.63;6.00;;;;;;;;;;4204136;34;20573;-57
2022/04/14 05:19:47;;;;;;;17.48;5.87;;;;;;;;;;4191353;34;20137;-57
2022/04/14 05:22:13;;;;;;;11.82;6.25;;;;;;;;;;4203696;34;20217;-58
2022/04/14 05:24:39;;;;;;;8.85;6.10;;;;;;;;;;4204817;34;20208;-56
2022/04/14 05:27:05;;;;;;;13.57;6.53;;;;;;;;;;4205097;34;20205;-54
2022/04/14 05:29:31;;;;;;;10.07;6.35;;;;;;;;;;4217882;34;20114;-55
2022/04/14 05:31:57;;;;;;;12.27;6.30;;;;;;;;;;4217886;34;20136;-57
2022/04/14 05:34:23;;;;;;;10.57;6.62;;;;;;;;;;4217699;34;20112;-57
2022/04/14 05:36:49;;;;;;;15.32;8.23;;;;;;;;;;4217922;34;20204;-57
2022/04/14 05:39:15;;;;;;;15.05;8.02;;;;;;;;;;4217752;34;20316;-57
2022/04/14 05:41:42;;;;;;;19.40;7.60;;;;;;;;;;4217571;34;20181;-54
2022/04/14 05:44:07;;;;;;;30.20;12.93;;;;;;;;;;4217704;34;20113;-56
2022/04/14 05:46:33;;;;;;;21.70;11.98;;;;;;;;;;4217651;34;20212;-57
2022/04/14 05:48:59;;;;;;;27.25;13.40;;;;;;;;;;4217633;34;20502;-56
2022/04/14 05:51:25;;;;;;;30.15;13.93;;;;;;;;;;4217551;34;20109;-57
2022/04/14 05:53:53;;;;;;;28.38;13.80;;;;;;;;;;4219546;34;20109;-57
2022/04/14 05:56:19;;;;;;;28.48;15.52;;;;;;;;;;4219612;34;20136;-56
2022/04/14 05:58:45;;;;;;;30.85;14.87;;;;;;;;;;4219766;34;20191;-56
2022/04/14 06:01:12;;;;;;;37.95;16.67;;;;;;;;;;4219900;34;20137;-56
2022/04/14 06:03:39;;;;;;;38.75;13.90;;;;;;;;;;4206725;34;20204;-56
2022/04/14 06:06:05;;;;;;;22.23;11.07;;;;;;;;;;4219504;34;20189;-56
2022/04/14 06:08:31;;;;;;;42.45;14.68;;;;;;;;;;4219926;34;20090;-56
2022/04/14 06:10:57;;;;;;;40.80;15.18;;;;;;;;;;4219619;34;20197;-55
2022/04/14 06:13:23;;;;;;;34.55;15.30;;;;;;;;;;4219549;34;20113;-57
2022/04/14 06:15:49;;;;;;;33.60;13.98;;;;;;;;;;4219504;34;20096;-56
2022/04/14 06:18:15;;;;;;;40.70;17.45;;;;;;;;;;4219527;34;20098;-56
2022/04/14 06:20:41;;;;;;;43.20;18.27;;;;;;;;;;4219437;34;20573;-56
2022/04/14 06:23:08;;;;;;;40.88;15.45;;;;;;;;;;4219357;34;20097;-57
2022/04/14 06:25:34;;;;;;;40.15;17.73;;;;;;;;;;4211970;34;20085;-56
2022/04/14 06:28:01;;;;;;;36.83;17.77;;;;;;;;;;4205695;34;20121;-57
2022/04/14 06:30:27;;;;;;;36.25;18.45;;;;;;;;;;4205418;34;20118;-56
2022/04/14 06:33:00;;;;;;;47.67;17.58;;;;;;;;;;4205502;34;20510;-57
2022/04/14 06:35:26;;;;;;;53.05;18.83;;;;;;;;;;4205348;34;20493;-57
2022/04/14 06:37:53;;;;;;;32.22;12.73;;;;;;;;;;4205405;34;20509;-56
2022/04/14 06:40:20;;;;;;;40.70;16.40;;;;;;;;;;4205291;34;20439;-56
2022/04/14 06:42:46;;;;;;;37.80;13.73;;;;;;;;;;4205301;34;20552;-58
2022/04/14 06:45:12;;;;;;;52.25;20.12;;;;;;;;;;4205289;34;20201;-57
2022/04/14 06:47:38;;;;;;;38.78;17.90;;;;;;;;;;4205293;34;20530;-59
2022/04/14 06:50:05;;;;;;;36.30;17.17;;;;;;;;;;4205315;34;20133;-57
2022/04/14 06:52:30;;;;;;;34.22;16.02;;;;;;;;;;4205244;34;20122;-57
2022/04/14 06:54:56;;;;;;;40.55;18.27;;;;;;;;;;4205535;34;20121;-56
2022/04/14 06:57:23;;;;;;;40.95;19.33;;;;;;;;;;4205340;34;20106;-54
2022/04/14 06:59:48;;;;;;;36.63;18.00;;;;;;;;;;4205276;34;20106;-56
2022/04/14 07:02:14;;;;;;;35.75;15.70;;;;;;;;;;4205701;34;20197;-56
2022/04/14 07:04:40;;;;;;;31.87;15.32;;;;;;;;;;4205323;34;20186;-55
2022/04/14 07:07:06;;;;;;;34.78;16.05;;;;;;;;;;4205441;34;20193;-54
2022/04/14 07:09:33;;;;;;;23.77;10.52;;;;;;;;;;4205461;34;20117;-56
2022/04/14 07:12:03;;;;;;;21.55;9.43;;;;;;;;;;4205324;34;20583;-56
2022/04/14 07:14:29;;;;;;;14.57;6.68;;;;;;;;;;4205134;34;20108;-56
2022/04/14 07:16:56;;;;;;;16.20;6.80;;;;;;;;;;4204895;34;20102;-56
2022/04/14 07:19:22;;;;;;;19.25;7.15;;;;;;;;;;4205347;34;20114;-56
2022/04/14 07:21:48;;;;;;;12.90;5.05;;;;;;;;;;4204923;34;20309;-56
2022/04/14 07:24:14;;;;;;;5.20;3.67;;;;;;;;;;4204998;34;20105;-56
2022/04/14 07:26:40;;;;;;;11.68;4.43;;;;;;;;;;4205011;34;20106;-57
2022/04/14 07:29:06;;;;;;;17.42;5.85;;;;;;;;;;4205402;34;20087;-56
2022/04/14 07:31:32;;;;;;;17.85;5.60;;;;;;;;;;4204961;34;20197;-57
2022/04/14 07:33:59;;;;;;;11.27;4.65;;;;;;;;;;4205032;34;20094;-59
2022/04/14 07:36:25;;;;;;;11.68;5.95;;;;;;;;;;4192401;34;20097;-57
2022/04/14 07:38:52;;;;;;;12.77;6.15;;;;;;;;;;4205075;34;20118;-56
2022/04/14 07:41:18;;;;;;;12.60;3.97;;;;;;;;;;4192008;34;20138;-54
2022/04/14 07:43:44;;;;;;;19.65;7.70;;;;;;;;;;4204932;34;20300;-56
2022/04/14 07:46:10;;;;;;;13.95;6.07;;;;;;;;;;4204870;34;20201;-56
2022/04/14 07:48:36;;;;;;;9.70;6.18;;;;;;;;;;4203492;34;20112;-57
2022/04/14 07:51:03;;;;;;;17.12;7.25;;;;;;;;;;4204635;34;20228;-57
2022/04/14 07:53:30;;;;;;;14.20;5.87;;;;;;;;;;4204816;34;20196;-57
2022/04/14 07:55:56;;;;;;;12.75;5.65;;;;;;;;;;4204843;34;20109;-56
2022/04/14 07:58:22;;;;;;;17.73;6.30;;;;;;;;;;4204843;34;20114;-57
2022/04/14 08:00:50;;;;;;;10.65;5.00;;;;;;;;;;4204858;34;20118;-57
2022/04/14 08:03:16;;;;;;;18.67;6.30;;;;;;;;;;4204784;34;20453;-59
2022/04/14 08:05:44;;;;;;;17.02;5.97;;;;;;;;;;4204624;34;20109;-59
2022/04/14 08:08:15;;;;;;;5.75;2.90;;;;;;;;;;4204760;34;20453;-57
2022/04/14 08:10:42;;;;;;;2.50;1.67;;;;;;;;;;4215175;34;20097;-58
2022/04/14 08:13:08;;;;;;;1.37;1.27;;;;;;;;;;4191852;34;20565;-58
2022/04/14 08:15:34;;;;;;;4.82;2.10;;;;;;;;;;4191303;34;20201;-59
2022/04/14 08:18:01;;;;;;;0.80;0.80;;;;;;;;;;4205138;34;20119;-59
2022/04/14 08:20:27;;;;;;;8.10;4.82;;;;;;;;;;4204506;34;20125;-59
2022/04/14 08:22:58;;;;;;;5.10;2.03;;;;;;;;;;4204673;34;20113;-58
2022/04/14 08:25:26;;;;;;;16.25;4.70;;;;;;;;;;4204536;34;20110;-59
2022/04/14 08:27:53;;;;;;;9.73;5.40;;;;;;;;;;4204545;34;20142;-58
2022/04/14 08:30:20;;;;;;;2.37;1.98;;;;;;;;;;4204488;34;20148;-56
2022/04/14 08:32:47;;;;;;;12.07;4.80;;;;;;;;;;4204726;34;20197;-56
2022/04/14 08:35:14;;;;;;;12.45;5.32;;;;;;;;;;4204591;34;20220;-54
2022/04/14 08:37:41;;;;;;;12.37;3.37;;;;;;;;;;4204439;34;20125;-55
2022/04/14 08:40:09;;;;;;;19.98;7.37;;;;;;;;;;4204538;34;20189;-56
2022/04/14 08:42:39;;;;;;;7.87;4.03;;;;;;;;;;4204540;34;20201;-53
2022/04/14 08:45:11;;;;;;;10.57;2.75;;;;;;;;;;4204461;34;20121;-54
2022/04/14 08:47:41;;;;;;;16.58;5.03;;;;;;;;;;4204374;34;20106;-55
2022/04/14 08:50:13;;;;;;;2.05;1.80;;;;;;;;;;4204517;34;20105;-55
2022/04/14 08:52:40;;;;;;;6.30;3.50;;;;;;;;;;4204475;34;20105;-55
2022/04/14 08:55:08;;;;;;;11.38;4.90;;;;;;;;;;4204442;34;20121;-55
2022/04/14 08:57:38;;;;;;;10.23;3.58;;;;;;;;;;4204316;34;20632;-56
2022/04/14 09:00:06;;;;;;;9.82;4.03;;;;;;;;;;4204301;34;20498;-58
2022/04/14 09:02:33;;;;;;;1.58;1.35;;;;;;;;;;4204402;34;20120;-58
2022/04/14 09:04:59;;;;;;;10.40;3.58;;;;;;;;;;4204166;34;20140;-59
2022/04/14 09:07:26;;;;;;;7.62;3.58;;;;;;;;;;4213890;34;20132;-58
2022/04/14 09:09:52;;;;;;;8.10;3.75;;;;;;;;;;4179788;34;20113;-63
2022/04/14 09:12:18;;;;;;;13.15;4.20;;;;;;;;;;4204072;34;20201;-62
2022/04/14 09:14:45;;;;;;;1.00;1.00;;;;;;;;;;4204152;34;20121;-59
2022/04/14 09:17:12;;;;;;;11.12;1.70;;;;;;;;;;4204216;34;20129;-61
2022/04/14 09:19:38;;;;;;;11.23;5.22;;;;;;;;;;4204427;34;20112;-59
2022/04/14 09:22:07;;;;;;;2.10;1.33;;;;;;;;;;4204295;34;20223;-61
2022/04/14 09:24:40;;;;;;;9.30;3.20;;;;;;;;;;4203752;34;20186;-60
2022/04/14 09:27:06;;;;;;;11.38;3.65;;;;;;;;;;4204305;34;20109;-61
2022/04/14 09:29:32;;;;;;;4.40;1.15;;;;;;;;;;4206070;34;20749;-61
2022/04/14 09:31:58;;;;;;;1.73;1.55;;;;;;;;;;4206540;34;20201;-63
2022/04/14 09:34:51;;;;;;;7.97;3.83;;;;;;;;;;4206234;34;20133;-61
2022/04/14 09:37:18;;;;;;;5.25;1.75;;;;;;;;;;4205989;34;20094;-60
2022/04/14 09:39:51;;;;;;;8.75;4.25;;;;;;;;;;4206235;34;20109;-61
2022/04/14 09:42:17;;;;;;;5.57;3.22;;;;;;;;;;4206020;34;20113;-61
2022/04/14 09:44:43;;;;;;;11.15;5.70;;;;;;;;;;4192992;34;20129;-62
2022/04/14 09:47:09;;;;;;;11.30;5.37;;;;;;;;;;4205881;34;20128;-62
2022/04/14 09:49:41;;;;;;;10.32;4.85;;;;;;;;;;4205865;34;20102;-59
2022/04/14 09:52:07;;;;;;;9.10;4.25;;;;;;;;;;4205969;34;20112;-59
2022/04/14 09:54:33;;;;;;;12.02;4.82;;;;;;;;;;4205861;34;20434;-58
2022/04/14 09:56:59;;;;;;;12.65;4.78;;;;;;;;;;4205913;34;20181;-60
2022/04/14 09:59:30;;;;;;;18.15;5.87;;;;;;;;;;4216259;34;20617;-61
2022/04/14 10:02:17;;;;;;;18.17;7.62;;;;;;;;;;4205817;34;20090;-59
2022/04/14 10:04:44;;;;;;;11.32;7.00;;;;;;;;;;4205721;34;20136;-61
2022/04/14 10:07:14;;;;;;;26.27;7.22;;;;;;;;;;4205723;34;20485;-60
2022/04/14 10:09:41;;;;;;;12.10;3.45;;;;;;;;;;4206045;34;20121;-60
2022/04/14 10:12:29;;;;;;;11.73;4.68;;;;;;;;;;4205890;34;20223;-62
2022/04/14 10:15:10;;;;;;;9.43;3.80;;;;;;;;;;4205730;34;20458;-60
2022/04/14 10:17:38;;;;;;;6.70;1.87;;;;;;;;;;4193489;34;20113;-63
2022/04/14 10:20:14;;;;;;;10.98;3.87;;;;;;;;;;4205956;34;20133;-59
2022/04/14 10:22:40;;;;;;;7.07;4.55;;;;;;;;;;4205457;34;20112;-59
2022/04/14 10:25:07;;;;;;;8.45;4.53;;;;;;;;;;4205777;34;20539;-59
2022/04/14 10:27:36;;;;;;;11.45;4.05;;;;;;;;;;4205612;34;20521;-61
2022/04/14 10:30:03;;;;;;;1.05;1.05;;;;;;;;;;4205609;34;20198;-59
2022/04/14 10:32:30;;;;;;;8.10;4.00;;;;;;;;;;4205486;34;20117;-60
2022/04/14 10:35:00;;;;;;;7.78;4.82;;;;;;;;;;4205647;34;20205;-60
2022/04/14 10:37:32;;;;;;;4.72;3.22;;;;;;;;;;4205608;34;20120;-60
2022/04/14 10:39:58;;;;;;;10.68;4.20;;;;;;;;;;4192240;34;20505;-61
2022/04/14 10:42:27;;;;;;;6.85;3.53;;;;;;;;;;4205466;34;20113;-61
2022/04/14 10:44:54;;;;;;;11.73;3.12;;;;;;;;;;4205287;34;20129;-61
2022/04/14 10:47:42;;;;;;;8.82;4.43;;;;;;;;;;4205337;34;20170;-60
2022/04/14 10:50:24;;;;;;;7.90;4.95;;;;;;;;;;4205358;34;20223;-61
2022/04/14 10:53:12;;;;;;;10.27;4.10;;;;;;;;;;4205755;34;20520;-61
2022/04/14 10:55:43;;;;;;;17.90;4.60;;;;;;;;;;4205372;34;20125;-62
2022/04/14 10:58:27;;;;;;;14.65;5.15;;;;;;;;;;4205254;34;20121;-63
2022/04/14 11:00:54;;;;;;;8.15;3.97;;;;;;;;;;4205437;34;20117;-62
2022/04/14 11:03:20;;;;;;;11.00;3.92;;;;;;;;;;4205046;34;20144;-63
2022/04/14 11:05:50;;;;;;;10.32;4.00;;;;;;;;;;4205167;34;20552;-63
2022/04/14 11:08:30;;;;;;;6.43;3.80;;;;;;;;;;4205206;34;20535;-61
2022/04/14 11:11:01;;;;;;;11.43;4.80;;;;;;;;;;4205355;34;20098;-62
2022/04/14 11:13:58;;;;;;;13.70;6.65;;;;;;;;;;4205156;34;20540;-63
2022/04/14 11:16:47;;;;;;;9.02;4.30;;;;;;;;;;4205012;34;20548;-60
2022/04/14 11:19:20;;;;;;;8.57;4.03;;;;;;;;;;4205444;34;20401;-60
2022/04/14 11:21:58;;;;;;;5.57;2.97;;;;;;;;;;4205043;34;20602;-59
2022/04/14 11:24:36;;;;;;;12.07;3.75;;;;;;;;;;4205330;34;20109;-59
2022/04/14 11:27:18;;;;;;;0.82;0.82;;;;;;;;;;4205024;34;20110;-60
2022/04/14 11:29:48;;;;;;;7.68;4.62;;;;;;;;;;4205060;34;20094;-61
2022/04/14 11:32:16;;;;;;;11.77;4.85;;;;;;;;;;4205475;34;20123;-59
2022/04/14 11:34:42;;;;;;;13.05;5.07;;;;;;;;;;4205049;34;20098;-58
2022/04/14 11:37:44;;;;;;;11.32;4.40;;;;;;;;;;4205021;34;20161;-60
2022/04/14 11:40:17;;;;;;;6.25;3.95;;;;;;;;;;4196481;34;20279;-59
2022/04/14 11:42:55;;;;;;;10.75;4.80;;;;;;;;;;4191983;34;20114;-62
2022/04/14 11:45:25;;;;;;;21.45;7.12;;;;;;;;;;4205173;34;20198;-63
2022/04/14 11:47:54;;;;;;;9.07;3.87;;;;;;;;;;4204826;34;20104;-63
2022/04/14 11:50:24;;;;;;;13.45;3.85;;;;;;;;;;4202477;34;20465;-57
2022/04/14 11:53:01;;;;;;;7.07;3.80;;;;;;;;;;4204984;34;20106;-59
2022/04/14 11:55:38;;;;;;;23.65;4.70;;;;;;;;;;4192186;34;20108;-58
2022/04/14 11:58:09;;;;;;;10.52;4.43;;;;;;;;;;4204956;34;20458;-58
2022/04/14 12:00:49;;;;;;;4.03;3.40;;;;;;;;;;4204639;34;20093;-56
2022/04/14 12:03:17;;;;;;;5.95;4.45;;;;;;;;;;4204922;34;20185;-57
2022/04/14 12:05:52;;;;;;;7.05;4.97;;;;;;;;;;4192067;34;20118;-57
2022/04/14 12:08:18;;;;;;;9.77;4.20;;;;;;;;;;4204721;34;20498;-57
2022/04/14 12:10:44;;;;;;;7.57;4.35;;;;;;;;;;4204721;34;20094;-57
2022/04/14 12:13:11;;;;;;;9.65;4.32;;;;;;;;;;4204670;34;20510;-57
2022/04/14 12:15:37;;;;;;;22.10;6.68;;;;;;;;;;4204621;34;20125;-57
2022/04/14 12:18:12;;;;;;;13.43;4.60;;;;;;;;;;4204907;34;20217;-57
2022/04/14 12:20:40;;;;;;;;;;;;;;;;;;4205009;34;20129;-57
2022/04/14 12:23:12;;;;;;;9.73;3.97;;;;;;;;;;4204554;34;20016;-57
2022/04/14 12:25:41;;;;;;;7.93;4.05;;;;;;;;;;4204654;34;20196;-55
2022/04/14 12:28:07;;;;;;;8.18;3.97;;;;;;;;;;4204849;34;20109;-57
2022/04/14 12:30:34;;;;;;;12.75;4.18;;;;;;;;;;4204639;34;20102;-57
2022/04/14 12:33:05;;;;;;;9.05;3.50;;;;;;;;;;4204562;34;20090;-55
2022/04/14 12:35:36;;;;;;;10.77;3.45;;;;;;;;;;4204691;34;20122;-56
2022/04/14 12:38:18;;;;;;;11.32;6.07;;;;;;;;;;4204544;34;20104;-57
2022/04/14 12:40:57;;;;;;;19.62;7.10;;;;;;;;;;4204699;34;20089;-57
2022/04/14 12:43:24;;;;;;;0.90;0.90;;;;;;;;;;4204594;34;20125;-57
2022/04/14 12:45:50;;;;;;;11.52;4.78;;;;;;;;;;4204487;34;20310;-57
2022/04/14 12:48:35;;;;;;;15.25;5.28;;;;;;;;;;4204340;34;20121;-57
2022/04/14 12:51:01;;;;;;;4.05;2.60;;;;;;;;;;4204437;34;20213;-57
2022/04/14 12:53:28;;;;;;;13.18;5.87;;;;;;;;;;4214695;34;20090;-58
2022/04/14 12:56:13;;;;;;;14.52;6.35;;;;;;;;;;4204738;34;20114;-58
2022/04/14 12:58:39;;;;;;;11.60;6.18;;;;;;;;;;4204424;34;20118;-58
2022/04/14 13:01:09;;;;;;;22.70;7.25;;;;;;;;;;4191409;34;20129;-59
2022/04/14 13:03:46;;;;;;;9.40;5.10;;;;;;;;;;4204194;34;20194;-57
2022/04/14 13:06:16;;;;;;;13.32;5.90;;;;;;;;;;4204234;34;20105;-57
2022/04/14 13:08:42;;;;;;;2.35;1.62;;;;;;;;;;4204166;34;20113;-58
2022/04/14 13:11:08;;;;;;;32.28;6.82;;;;;;;;;;4204252;34;20122;-57
2022/04/14 13:13:34;;;;;;;13.40;4.45;;;;;;;;;;4204089;34;20125;-58
2022/04/14 13:16:01;;;;;;;14.87;5.97;;;;;;;;;;4204002;34;20189;-57
2022/04/14 13:18:27;;;;;;;23.30;6.43;;;;;;;;;;4204281;34;20093;-57
2022/04/14 13:20:53;;;;;;;8.98;5.78;;;;;;;;;;4204077;34;20098;-58
2022/04/14 13:23:20;;;;;;;13.98;6.20;;;;;;;;;;4204190;34;20116;-58
2022/04/14 13:25:47;;;;;;;13.75;6.53;;;;;;;;;;4203992;34;20110;-57
2022/04/14 13:28:13;;;;;;;10.88;5.60;;;;;;;;;;4204123;34;20106;-57
2022/04/14 13:30:39;;;;;;;7.20;3.47;;;;;;;;;;4203904;34;20217;-57
2022/04/14 13:33:06;;;;;;;16.20;7.47;;;;;;;;;;4204118;34;20557;-57
2022/04/14 13:35:33;;;;;;;25.17;8.20;;;;;;;;;;4204291;34;20149;-54
2022/04/14 13:37:59;;;;;;;25.27;8.77;;;;;;;;;;4203886;34;20137;-57
2022/04/14 13:40:25;;;;;;;16.33;7.30;;;;;;;;;;4203799;34;20121;-55
2022/04/14 13:42:51;;;;;;;14.60;7.43;;;;;;;;;;4203803;34;20580;-57
2022/04/14 13:45:17;;;;;;;20.98;6.72;;;;;;;;;;4203728;34;20534;-57
2022/04/14 13:47:43;;;;;;;7.78;6.28;;;;;;;;;;4204026;34;20106;-57
2022/04/14 13:50:11;;;;;;;19.05;8.50;;;;;;;;;;4203751;34;20110;-57
2022/04/14 13:52:38;;;;;;;12.93;7.28;;;;;;;;;;4203857;34;20224;-56
2022/04/14 13:55:05;;;;;;;19.58;8.02;;;;;;;;;;4203641;34;20208;-56
2022/04/14 13:57:31;;;;;;;20.90;8.20;;;;;;;;;;4203971;34;20205;-56
2022/04/14 13:59:57;;;;;;;17.45;7.93;;;;;;;;;;4203604;34;20450;-56
2022/04/14 14:02:23;;;;;;;15.95;8.45;;;;;;;;;;4203720;34;20133;-56
2022/04/14 14:04:49;;;;;;;16.87;9.15;;;;;;;;;;4203738;34;20173;-57
2022/04/14 14:07:15;;;;;;;13.50;8.15;;;;;;;;;;4203480;34;20232;-57
2022/04/14 14:09:41;;;;;;;16.87;8.20;;;;;;;;;;4203821;34;20117;-57
2022/04/14 14:12:08;;;;;;;20.30;9.85;;;;;;;;;;4203800;34;20209;-58
2022/04/14 14:14:34;;;;;;;20.52;9.02;;;;;;;;;;4205106;34;20117;-58
2022/04/14 14:17:00;;;;;;;29.52;14.52;;;;;;;;;;4205689;34;20109;-58
2022/04/14 14:19:26;;;;;;;16.70;8.25;;;;;;;;;;4205726;34;20141;-57
2022/04/14 14:21:52;;;;;;;14.10;6.93;;;;;;;;;;4205527;34;20524;-58
2022/04/14 14:24:18;;;;;;;30.55;10.80;;;;;;;;;;4205742;34;20129;-57
2022/04/14 14:26:44;;;;;;;11.48;7.78;;;;;;;;;;4205595;34;20145;-58
2022/04/14 14:29:10;;;;;;;8.10;5.03;;;;;;;;;;4192974;34;20486;-57
2022/04/14 14:31:39;;;;;;;13.45;5.05;;;;;;;;;;4205627;34;20519;-58
2022/04/14 14:34:06;;;;;;;13.77;4.05;;;;;;;;;;4205490;34;20205;-58
2022/04/14 14:36:32;;;;;;;15.30;5.37;;;;;;;;;;4205626;34;20227;-58
2022/04/14 14:38:58;;;;;;;9.88;4.68;;;;;;;;;;4192741;34;20116;-57
2022/04/14 14:41:25;;;;;;;11.23;3.92;;;;;;;;;;4205455;34;20513;-58
2022/04/14 14:43:51;;;;;;;1.45;1.17;;;;;;;;;;4205424;34;20435;-57
2022/04/14 14:46:21;;;;;;;0.93;0.93;;;;;;;;;;4205713;34;20148;-57
2022/04/14 14:48:50;;;;;;;3.42;2.12;;;;;;;;;;4205456;34;20152;-57
2022/04/14 14:51:16;;;;;;;7.62;3.53;;;;;;;;;;4205525;34;20090;-57
2022/04/14 14:53:42;;;;;;;1.98;1.70;;;;;;;;;;4205384;34;20228;-56
2022/04/14 14:56:08;;;;;;;1.42;1.33;;;;;;;;;;4205701;34;20144;-56
2022/04/14 15:01:19;;;;;;;1.42;1.33;;;;;;;;;;4205187;34;20117;-58
2022/04/14 15:03:45;;;;;;;2.83;2.30;;;;;;;;;;4202723;34;20128;-58